createdAt,value
2018-12-05T00:00:03.468Z,20.26
2018-12-05T00:02:31.127Z,20.28
2018-12-05T00:04:58.739Z,20.27
2018-12-05T00:07:26.338Z,20.27
2018-12-05T00:09:53.951Z,20.28
2018-12-05T00:12:21.550Z,20.24
2018-12-05T00:14:49.190Z,20.23
2018-12-05T00:17:16.807Z,20.24
2018-12-05T00:19:44.525Z,20.22
2018-12-05T00:22:12.136Z,20.24
2018-12-05T00:24:39.758Z,20.27
2018-12-05T00:27:07.385Z,20.26
2018-12-05T00:29:35.002Z,20.26
2018-12-05T00:32:02.699Z,20.11
2018-12-05T00:34:30.306Z,20.23
2018-12-05T00:36:57.952Z,20.22
2018-12-05T00:39:25.576Z,20.25
2018-12-05T00:41:53.191Z,20.24
2018-12-05T00:44:20.820Z,20.19
2018-12-05T00:46:48.430Z,20.23
2018-12-05T00:49:16.050Z,20.11
2018-12-05T00:51:43.680Z,20.20
2018-12-05T00:54:11.295Z,20.21
2018-12-05T00:56:38.902Z,20.21
2018-12-05T00:59:06.564Z,20.25
2018-12-05T01:01:34.187Z,20.19
2018-12-05T01:04:01.782Z,20.19
2018-12-05T01:06:29.484Z,20.21
2018-12-05T01:08:57.112Z,20.17
2018-12-05T01:11:24.811Z,20.20
2018-12-05T01:13:52.489Z,20.20
2018-12-05T01:16:20.212Z,20.18
2018-12-05T01:18:47.884Z,20.20
2018-12-05T01:21:15.505Z,20.18
2018-12-05T01:23:43.135Z,20.19
2018-12-05T01:26:10.779Z,20.17
2018-12-05T01:28:38.396Z,20.16
2018-12-05T01:31:06.087Z,20.14
2018-12-05T01:33:33.785Z,20.17
2018-12-05T01:36:01.421Z,20.15
2018-12-05T01:38:29.024Z,20.15
2018-12-05T01:40:56.636Z,20.19
2018-12-05T01:43:28.467Z,20.16
2018-12-05T01:45:56.171Z,20.19
2018-12-05T01:48:23.771Z,20.18
2018-12-05T01:50:51.396Z,20.21
2018-12-05T01:53:19.043Z,20.21
2018-12-05T01:55:46.664Z,20.16
2018-12-05T01:58:14.283Z,20.16
2018-12-05T02:00:42.085Z,20.18
2018-12-05T02:03:09.705Z,20.17
2018-12-05T02:05:37.325Z,20.14
2018-12-05T02:08:04.947Z,20.17
2018-12-05T02:10:32.559Z,20.14
2018-12-05T02:13:00.243Z,20.15
2018-12-05T02:15:27.855Z,20.14
2018-12-05T02:17:55.472Z,19.47
2018-12-05T02:20:23.093Z,20.13
2018-12-05T02:22:50.703Z,20.12
2018-12-05T02:25:18.320Z,20.15
2018-12-05T02:27:45.961Z,20.12
2018-12-05T02:30:13.583Z,20.12
2018-12-05T02:32:41.257Z,20.12
2018-12-05T02:35:08.872Z,20.18
2018-12-05T02:37:36.480Z,20.15
2018-12-05T02:40:04.476Z,20.20
2018-12-05T02:42:32.075Z,20.13
2018-12-05T02:44:59.760Z,20.10
2018-12-05T02:47:27.404Z,20.10
2018-12-05T02:49:55.035Z,20.10
2018-12-05T02:52:22.669Z,20.09
2018-12-05T02:54:50.295Z,20.10
2018-12-05T02:57:17.903Z,20.09
2018-12-05T02:59:45.526Z,20.09
2018-12-05T03:02:13.169Z,20.08
2018-12-05T03:04:40.792Z,20.07
2018-12-05T03:07:08.408Z,20.07
2018-12-05T03:09:36.031Z,20.01
2018-12-05T03:12:03.740Z,20.06
2018-12-05T03:14:31.403Z,20.09
2018-12-05T03:16:59.120Z,20.10
2018-12-05T03:19:26.764Z,20.08
2018-12-05T03:21:54.404Z,20.10
2018-12-05T03:24:22.031Z,20.06
2018-12-05T03:26:49.643Z,20.09
2018-12-05T03:29:17.252Z,20.09
2018-12-05T03:31:44.873Z,20.09
2018-12-05T03:34:12.480Z,20.05
2018-12-05T03:36:40.124Z,20.10
2018-12-05T03:39:08.597Z,20.10
2018-12-05T03:41:36.501Z,20.06
2018-12-05T03:44:04.123Z,20.06
2018-12-05T03:46:31.756Z,20.08
2018-12-05T03:48:59.416Z,20.05
2018-12-05T03:51:27.044Z,20.05
2018-12-05T03:53:54.654Z,19.93
2018-12-05T03:56:22.359Z,20.09
2018-12-05T03:58:50.042Z,20.05
2018-12-05T04:01:17.667Z,20.08
2018-12-05T04:03:45.283Z,20.07
2018-12-05T04:06:12.945Z,20.03
2018-12-05T04:08:40.584Z,20.04
2018-12-05T04:11:08.200Z,20.06
2018-12-05T04:13:35.917Z,20.05
2018-12-05T04:16:03.563Z,20.02
2018-12-05T04:18:31.184Z,20.04
2018-12-05T04:20:58.974Z,20.00
2018-12-05T04:23:26.622Z,20.03
2018-12-05T04:25:54.256Z,20.03
2018-12-05T04:28:22.365Z,20.03
2018-12-05T04:30:50.405Z,19.94
2018-12-05T04:33:18.060Z,20.05
2018-12-05T04:35:45.713Z,20.01
2018-12-05T04:38:13.722Z,20.07
2018-12-05T04:40:41.947Z,20.04
2018-12-05T04:43:09.886Z,20.07
2018-12-05T04:45:37.513Z,20.06
2018-12-05T04:48:05.427Z,20.00
2018-12-05T04:50:34.481Z,20.02
2018-12-05T04:53:02.944Z,20.01
2018-12-05T04:55:31.417Z,20.02
2018-12-05T04:57:59.511Z,20.01
2018-12-05T05:00:27.184Z,19.98
2018-12-05T05:02:54.830Z,20.04
2018-12-05T05:05:22.473Z,20.03
2018-12-05T05:07:50.153Z,19.99
2018-12-05T05:10:17.795Z,20.02
2018-12-05T05:12:45.520Z,20.03
2018-12-05T05:15:13.132Z,20.03
2018-12-05T05:17:40.742Z,20.01
2018-12-05T05:20:08.348Z,19.99
2018-12-05T05:22:35.951Z,20.01
2018-12-05T05:25:03.600Z,19.99
2018-12-05T05:27:31.299Z,20.00
2018-12-05T05:29:59.549Z,19.89
2018-12-05T05:32:27.169Z,19.97
2018-12-05T05:34:54.841Z,19.98
2018-12-05T05:37:22.550Z,19.99
2018-12-05T05:39:50.160Z,19.96
2018-12-05T05:42:17.780Z,20.00
2018-12-05T05:44:45.411Z,19.95
2018-12-05T05:47:13.131Z,19.92
2018-12-05T05:49:40.777Z,19.96
2018-12-05T05:52:08.392Z,19.99
2018-12-05T05:54:36.008Z,19.92
2018-12-05T05:57:03.627Z,19.93
2018-12-05T05:59:31.246Z,19.95
2018-12-05T06:01:58.855Z,19.95
2018-12-05T06:04:26.467Z,19.93
2018-12-05T06:06:54.124Z,19.94
2018-12-05T06:09:21.779Z,19.91
2018-12-05T06:11:49.410Z,19.92
2018-12-05T06:14:17.044Z,19.87
2018-12-05T06:16:44.663Z,19.90
2018-12-05T06:19:12.271Z,19.89
2018-12-05T06:21:39.908Z,19.86
2018-12-05T06:24:07.528Z,19.92
2018-12-05T06:26:35.231Z,19.88
2018-12-05T06:29:02.853Z,19.88
2018-12-05T06:31:30.516Z,19.88
2018-12-05T06:33:58.123Z,19.89
2018-12-05T06:36:25.737Z,19.90
2018-12-05T06:38:53.416Z,19.86
2018-12-05T06:41:21.037Z,19.89
2018-12-05T06:43:48.702Z,19.94
2018-12-05T06:46:16.379Z,19.87
2018-12-05T06:48:43.988Z,19.88
2018-12-05T06:51:11.600Z,19.88
2018-12-05T06:53:39.215Z,19.88
2018-12-05T06:56:06.948Z,19.89
2018-12-05T06:58:34.603Z,19.90
2018-12-05T07:01:02.231Z,19.89
2018-12-05T07:03:29.847Z,19.89
2018-12-05T07:05:57.485Z,19.86
2018-12-05T07:08:25.159Z,19.86
2018-12-05T07:10:52.802Z,19.86
2018-12-05T07:13:20.427Z,19.83
2018-12-05T07:15:48.057Z,19.87
2018-12-05T07:18:16.375Z,19.87
2018-12-05T07:20:43.991Z,19.83
2018-12-05T07:23:11.627Z,19.86
2018-12-05T07:25:39.267Z,19.87
2018-12-05T07:28:06.922Z,19.87
2018-12-05T07:30:34.657Z,19.88
2018-12-05T07:33:02.276Z,19.76
2018-12-05T07:35:29.919Z,19.87
2018-12-05T07:37:57.582Z,19.87
2018-12-05T07:40:25.191Z,19.86
2018-12-05T07:42:52.812Z,19.85
2018-12-05T07:45:20.445Z,19.84
2018-12-05T07:47:48.069Z,19.88
2018-12-05T07:50:15.950Z,19.86
2018-12-05T07:52:43.790Z,19.86
2018-12-05T07:55:11.432Z,19.87
2018-12-05T07:57:39.036Z,19.88
2018-12-05T08:00:06.846Z,19.89
2018-12-05T08:02:34.457Z,19.84
2018-12-05T08:05:02.072Z,19.84
2018-12-05T08:07:29.695Z,19.85
2018-12-05T08:09:57.344Z,19.84
2018-12-05T08:12:24.977Z,19.83
2018-12-05T08:14:52.644Z,19.83
2018-12-05T08:17:20.261Z,19.82
2018-12-05T08:19:48.315Z,19.83
2018-12-05T08:22:16.012Z,19.83
2018-12-05T08:24:43.739Z,19.83
2018-12-05T08:27:11.606Z,19.80
2018-12-05T08:29:39.454Z,19.84
2018-12-05T08:32:07.246Z,19.86
2018-12-05T08:34:35.125Z,19.89
2018-12-05T08:37:02.954Z,19.86
2018-12-05T08:39:30.745Z,19.87
2018-12-05T08:41:58.615Z,19.88
2018-12-05T08:44:26.423Z,19.86
2018-12-05T08:46:54.263Z,19.87
2018-12-05T08:49:22.061Z,19.85
2018-12-05T08:51:49.854Z,19.88
2018-12-05T08:54:21.048Z,19.88
2018-12-05T08:56:47.432Z,19.87
2018-12-05T08:59:15.316Z,19.86
2018-12-05T09:01:43.288Z,19.83
2018-12-05T09:04:11.076Z,19.83
2018-12-05T09:06:38.899Z,19.80
2018-12-05T09:09:07.033Z,19.84
2018-12-05T09:11:34.926Z,19.83
2018-12-05T09:14:02.784Z,19.80
2018-12-05T09:16:30.581Z,19.81
2018-12-05T09:18:58.348Z,19.81
2018-12-05T09:21:26.122Z,19.84
2018-12-05T09:23:53.917Z,19.82
2018-12-05T09:26:21.659Z,19.84
2018-12-05T09:28:49.468Z,19.84
2018-12-05T09:31:17.283Z,19.79
2018-12-05T09:33:45.132Z,19.78
2018-12-05T09:36:13.112Z,19.77
2018-12-05T09:38:40.866Z,19.77
2018-12-05T09:41:08.664Z,19.78
2018-12-05T09:43:36.512Z,19.78
2018-12-05T09:46:04.339Z,19.78
2018-12-05T09:48:32.033Z,19.81
2018-12-05T09:50:59.800Z,19.67
2018-12-05T09:53:27.629Z,19.85
2018-12-05T09:55:55.424Z,19.84
2018-12-05T09:58:23.564Z,19.86
2018-12-05T10:00:51.375Z,19.83
2018-12-05T10:03:19.126Z,19.83
2018-12-05T10:05:46.957Z,19.85
2018-12-05T10:08:14.748Z,19.85
2018-12-05T10:10:42.560Z,19.84
2018-12-05T10:13:10.359Z,19.86
2018-12-05T10:15:38.186Z,19.82
2018-12-05T10:18:06.033Z,19.85
2018-12-05T10:20:33.907Z,19.78
2018-12-05T10:23:01.788Z,19.81
2018-12-05T10:25:29.614Z,19.81
2018-12-05T10:27:57.533Z,19.78
2018-12-05T10:30:25.376Z,19.81
2018-12-05T10:32:53.189Z,19.80
2018-12-05T10:35:21.049Z,19.79
2018-12-05T10:37:48.888Z,19.78
2018-12-05T10:40:16.741Z,19.80
2018-12-05T10:42:44.649Z,19.80
2018-12-05T10:45:12.542Z,19.82
2018-12-05T10:47:40.371Z,19.86
2018-12-05T10:50:08.266Z,19.67
2018-12-05T10:52:36.096Z,19.78
2018-12-05T10:55:04.043Z,19.63
2018-12-05T10:57:31.888Z,19.73
2018-12-05T10:59:59.659Z,19.77
2018-12-05T11:02:32.756Z,19.79
2018-12-05T11:05:05.932Z,19.79
2018-12-05T11:07:38.862Z,19.78
2018-12-05T11:10:12.167Z,19.83
2018-12-05T11:14:47.871Z,19.84
2018-12-05T11:17:20.860Z,19.80
2018-12-05T11:19:59.761Z,19.81
2018-12-05T11:22:32.680Z,19.82
2018-12-05T11:25:06.279Z,19.80
2018-12-05T11:27:34.158Z,19.82
2018-12-05T11:30:02.008Z,19.80
2018-12-05T11:32:29.792Z,19.78
2018-12-05T11:34:57.565Z,19.79
2018-12-05T11:37:25.406Z,19.76
2018-12-05T11:39:53.316Z,19.75
2018-12-05T11:42:21.138Z,19.76
2018-12-05T11:44:49.047Z,19.76
2018-12-05T11:47:16.833Z,19.81
2018-12-05T11:49:44.663Z,19.78
2018-12-05T11:52:12.528Z,19.81
2018-12-05T11:54:40.310Z,19.80
2018-12-05T11:57:08.134Z,19.83
2018-12-05T11:59:35.915Z,19.82
2018-12-05T12:02:03.771Z,19.84
2018-12-05T12:04:31.571Z,19.87
2018-12-05T12:06:59.418Z,19.81
2018-12-05T12:09:27.298Z,19.83
2018-12-05T12:11:55.114Z,19.82
2018-12-05T12:14:22.910Z,19.83
2018-12-05T12:16:50.773Z,19.84
2018-12-05T12:19:18.646Z,19.82
2018-12-05T12:21:46.936Z,19.81
2018-12-05T12:24:16.926Z,19.80
2018-12-05T12:26:44.740Z,19.79
2018-12-05T12:29:12.999Z,19.82
2018-12-05T12:31:40.756Z,19.81
2018-12-05T12:34:08.541Z,19.75
2018-12-05T12:36:36.344Z,19.79
2018-12-05T12:39:06.001Z,19.75
2018-12-05T12:41:34.108Z,19.79
2018-12-05T12:44:02.378Z,19.80
2018-12-05T12:46:30.724Z,19.76
2018-12-05T12:48:59.032Z,19.78
2018-12-05T12:51:27.183Z,19.77
2018-12-05T12:53:55.090Z,19.79
2018-12-05T12:56:22.896Z,19.77
2018-12-05T12:58:50.715Z,19.66
2018-12-05T13:01:18.462Z,19.76
2018-12-05T13:03:46.254Z,19.80
2018-12-05T13:06:14.061Z,19.78
2018-12-05T13:08:41.865Z,19.82
2018-12-05T13:11:10.165Z,19.75
2018-12-05T13:13:37.963Z,19.56
2018-12-05T13:16:05.741Z,19.72
2018-12-05T13:18:33.538Z,19.76
2018-12-05T13:21:01.383Z,19.78
2018-12-05T13:23:29.170Z,19.79
2018-12-05T13:25:56.978Z,19.63
2018-12-05T13:28:24.776Z,19.75
2018-12-05T13:30:52.547Z,19.73
2018-12-05T13:33:20.369Z,19.71
2018-12-05T13:35:48.217Z,19.72
2018-12-05T13:38:16.031Z,19.74
2018-12-05T13:40:43.823Z,19.73
2018-12-05T13:43:11.667Z,19.72
2018-12-05T13:45:39.515Z,19.75
2018-12-05T13:48:07.381Z,19.75
2018-12-05T13:50:35.352Z,19.74
2018-12-05T13:53:03.135Z,19.72
2018-12-05T13:55:30.871Z,19.73
2018-12-05T13:57:58.668Z,19.72
2018-12-05T14:00:26.517Z,19.73
2018-12-05T14:02:54.300Z,19.55
2018-12-05T14:05:22.110Z,19.68
2018-12-05T14:07:49.995Z,19.69
2018-12-05T14:10:17.869Z,19.74
2018-12-05T14:12:45.675Z,19.70
2018-12-05T14:15:13.532Z,19.69
2018-12-05T14:17:41.288Z,19.67
2018-12-05T14:20:09.122Z,19.71
2018-12-05T14:22:36.937Z,19.69
2018-12-05T14:25:05.075Z,19.67
2018-12-05T14:27:32.875Z,19.68
2018-12-05T14:30:00.704Z,19.68
2018-12-05T14:32:28.488Z,19.71
2018-12-05T14:34:56.298Z,19.68
2018-12-05T14:37:24.422Z,19.67
2018-12-05T14:39:52.776Z,19.66
2018-12-05T14:42:21.192Z,19.68
2018-12-05T14:44:49.023Z,19.68
2018-12-05T14:47:16.819Z,19.66
2018-12-05T14:49:44.591Z,19.62
2018-12-05T14:52:12.435Z,19.60
2018-12-05T14:54:40.365Z,19.64
2018-12-05T14:57:08.400Z,19.62
2018-12-05T14:59:36.685Z,19.66
2018-12-05T15:02:05.013Z,19.65
2018-12-05T15:04:33.295Z,19.61
2018-12-05T15:07:01.703Z,19.55
2018-12-05T15:09:29.772Z,19.65
2018-12-05T15:11:57.574Z,19.60
2018-12-05T15:14:25.349Z,19.62
2018-12-05T15:16:53.173Z,19.63
2018-12-05T15:19:21.095Z,19.62
2018-12-05T15:21:48.867Z,19.64
2018-12-05T15:24:16.604Z,19.54
2018-12-05T15:26:44.425Z,19.55
2018-12-05T15:29:12.315Z,19.57
2018-12-05T15:31:40.192Z,19.62
2018-12-05T15:34:07.996Z,19.48
2018-12-05T15:36:35.772Z,19.61
2018-12-05T15:39:04.271Z,19.58
2018-12-05T15:41:32.177Z,19.60
2018-12-05T15:44:00.017Z,19.53
2018-12-05T15:46:27.788Z,19.56
2018-12-05T15:48:55.626Z,19.54
2018-12-05T15:51:23.408Z,19.56
2018-12-05T15:53:51.270Z,19.58
2018-12-05T15:56:19.023Z,19.55
2018-12-05T15:58:53.880Z,19.56
2018-12-05T16:01:21.736Z,19.56
2018-12-05T16:03:49.596Z,19.57
2018-12-05T16:06:17.319Z,19.54
2018-12-05T16:08:45.157Z,19.55
2018-12-05T16:11:13.411Z,19.59
2018-12-05T16:13:41.662Z,19.43
2018-12-05T16:16:09.958Z,19.56
2018-12-05T16:18:37.834Z,19.57
2018-12-05T16:21:05.597Z,19.60
2018-12-05T16:23:33.487Z,19.55
2018-12-05T16:26:01.741Z,19.52
2018-12-05T16:28:29.974Z,19.57
2018-12-05T16:30:58.224Z,19.52
2018-12-05T16:33:26.500Z,19.57
2018-12-05T16:35:54.333Z,19.56
2018-12-05T16:38:22.123Z,19.59
2018-12-05T16:40:49.963Z,19.53
2018-12-05T16:43:18.240Z,19.54
2018-12-05T16:45:46.119Z,19.53
2018-12-05T16:48:14.383Z,19.56
2018-12-05T16:50:42.733Z,19.57
2018-12-05T16:53:10.657Z,19.55
2018-12-05T16:55:39.998Z,19.52
2018-12-05T16:58:08.440Z,19.53
2018-12-05T17:00:36.742Z,19.53
2018-12-05T17:03:06.315Z,19.53
2018-12-05T17:05:34.088Z,19.50
2018-12-05T17:08:01.907Z,19.52
2018-12-05T17:10:29.694Z,19.54
2018-12-05T17:12:57.619Z,19.52
2018-12-05T17:15:25.421Z,19.53
2018-12-05T17:17:53.252Z,19.52
2018-12-05T17:20:21.091Z,19.54
2018-12-05T17:22:48.952Z,19.54
2018-12-05T17:25:16.769Z,19.52
2018-12-05T17:27:44.547Z,19.51
2018-12-05T17:30:12.327Z,19.54
2018-12-05T17:32:40.087Z,19.51
2018-12-05T17:35:07.923Z,19.51
2018-12-05T17:37:35.765Z,19.53
2018-12-05T17:40:03.556Z,19.51
2018-12-05T17:42:32.384Z,19.53
2018-12-05T17:45:00.160Z,19.55
2018-12-05T17:47:28.018Z,19.51
2018-12-05T17:49:55.909Z,19.50
2018-12-05T17:52:23.747Z,19.55
2018-12-05T17:54:51.602Z,19.56
2018-12-05T17:57:19.390Z,19.56
2018-12-05T17:59:47.256Z,19.50
2018-12-05T18:02:15.041Z,19.51
2018-12-05T18:04:42.894Z,19.49
2018-12-05T18:07:10.740Z,19.51
2018-12-05T18:09:38.543Z,19.49
2018-12-05T18:12:06.425Z,19.45
2018-12-05T18:14:34.076Z,19.48
2018-12-05T18:17:01.938Z,19.47
2018-12-05T18:19:29.830Z,19.47
2018-12-05T18:21:57.675Z,19.50
2018-12-05T18:24:25.559Z,19.44
2018-12-05T18:26:53.402Z,19.44
2018-12-05T18:29:21.243Z,19.46
2018-12-05T18:31:49.091Z,19.49
2018-12-05T18:34:16.951Z,19.46
2018-12-05T18:36:44.767Z,19.44
2018-12-05T18:39:12.618Z,19.46
2018-12-05T18:41:40.387Z,19.47
2018-12-05T18:44:08.222Z,18.89
2018-12-05T18:46:36.129Z,19.49
2018-12-05T18:49:04.113Z,19.49
2018-12-05T18:51:31.909Z,19.50
2018-12-05T18:53:59.794Z,19.45
2018-12-05T18:56:27.668Z,19.45
2018-12-05T18:58:55.425Z,19.45
2018-12-05T19:01:23.260Z,19.47
2018-12-05T19:03:51.053Z,19.45
2018-12-05T19:06:18.932Z,19.46
2018-12-05T19:08:46.891Z,19.45
2018-12-05T19:11:14.669Z,18.87
2018-12-05T19:13:47.857Z,19.49
2018-12-05T19:16:15.728Z,19.47
2018-12-05T19:18:43.629Z,19.45
2018-12-05T19:21:11.347Z,19.42
2018-12-05T19:23:39.249Z,19.47
2018-12-05T19:26:07.013Z,19.49
2018-12-05T19:28:34.837Z,19.45
2018-12-05T19:31:02.627Z,19.47
2018-12-05T19:33:30.384Z,19.43
2018-12-05T19:35:58.183Z,19.46
2018-12-05T19:38:26.098Z,19.45
2018-12-05T19:40:53.841Z,19.43
2018-12-05T19:43:21.658Z,19.44
2018-12-05T19:45:49.436Z,19.43
2018-12-05T19:48:17.250Z,19.31
2018-12-05T19:50:45.049Z,19.42
2018-12-05T19:53:12.812Z,19.42
2018-12-05T19:55:40.432Z,19.44
2018-12-05T19:58:08.068Z,19.44
2018-12-05T20:00:35.678Z,19.45
2018-12-05T20:03:03.372Z,19.44
2018-12-05T20:05:30.998Z,19.41
2018-12-05T20:07:58.629Z,19.45
2018-12-05T20:10:26.293Z,19.38
2018-12-05T20:12:53.904Z,19.41
2018-12-05T20:15:21.533Z,19.44
2018-12-05T20:17:49.175Z,19.43
2018-12-05T20:20:16.977Z,19.40
2018-12-05T20:22:44.728Z,19.38
2018-12-05T20:25:12.378Z,19.42
2018-12-05T20:27:40.179Z,19.40
2018-12-05T20:30:08.341Z,19.41
2018-12-05T20:32:35.999Z,19.40
2018-12-05T20:35:03.788Z,19.38
2018-12-05T20:37:31.580Z,19.43
2018-12-05T20:39:59.284Z,19.43
2018-12-05T20:42:27.084Z,19.42
2018-12-05T20:44:54.930Z,19.45
2018-12-05T20:47:22.798Z,19.43
2018-12-05T20:49:50.730Z,19.42
2018-12-05T20:52:18.534Z,19.41
2018-12-05T20:54:46.413Z,19.46
2018-12-05T20:57:14.321Z,19.47
2018-12-05T20:59:43.090Z,19.46
2018-12-05T21:02:11.151Z,19.43
2018-12-05T21:04:38.940Z,19.44
2018-12-05T21:07:06.760Z,19.46
2018-12-05T21:09:34.691Z,19.44
2018-12-05T21:12:02.495Z,19.45
2018-12-05T21:14:30.431Z,19.46
2018-12-05T21:16:58.237Z,19.46
2018-12-05T21:19:26.119Z,19.44
2018-12-05T21:21:53.860Z,19.46
2018-12-05T21:24:21.636Z,19.47
2018-12-05T21:26:49.385Z,19.49
2018-12-05T21:29:17.183Z,19.45
2018-12-05T21:31:44.964Z,19.47
2018-12-05T21:34:12.693Z,19.42
2018-12-05T21:36:40.323Z,19.44
2018-12-05T21:39:08.510Z,19.51
2018-12-05T21:41:36.336Z,19.53
2018-12-05T21:44:03.994Z,19.48
2018-12-05T21:46:32.847Z,19.50
2018-12-05T21:49:00.596Z,19.47
2018-12-05T21:51:28.207Z,19.46
2018-12-05T21:53:55.822Z,19.45
2018-12-05T21:56:23.451Z,19.43
2018-12-05T21:58:51.096Z,19.45
2018-12-05T22:01:18.860Z,19.47
2018-12-05T22:03:46.666Z,19.48
2018-12-05T22:06:14.542Z,19.50
2018-12-05T22:08:42.260Z,19.46
2018-12-05T22:11:09.868Z,19.46
2018-12-05T22:13:37.651Z,19.45
2018-12-05T22:16:05.459Z,19.45
2018-12-05T22:18:33.128Z,19.44
2018-12-05T22:21:01.248Z,19.41
2018-12-05T22:23:29.105Z,19.45
2018-12-05T22:25:57.001Z,19.45
2018-12-05T22:28:24.674Z,19.43
2018-12-05T22:30:52.312Z,19.47
2018-12-05T22:33:19.927Z,19.52
2018-12-05T22:35:47.576Z,19.56
2018-12-05T22:38:15.220Z,19.57
2018-12-05T22:40:42.823Z,19.49
2018-12-05T22:43:10.439Z,19.44
2018-12-05T22:45:38.056Z,19.40
2018-12-05T22:48:05.679Z,19.42
2018-12-05T22:50:33.319Z,19.37
2018-12-05T22:53:00.955Z,19.37
2018-12-05T22:55:28.581Z,19.38
2018-12-05T22:57:56.212Z,19.40
2018-12-05T23:00:23.977Z,19.38
2018-12-05T23:02:51.611Z,19.39
2018-12-05T23:05:48.628Z,19.39
2018-12-05T23:08:16.281Z,19.34
2018-12-05T23:10:43.890Z,19.33
2018-12-05T23:13:11.579Z,19.35
2018-12-05T23:15:39.192Z,19.31
2018-12-05T23:18:06.799Z,19.33
2018-12-05T23:20:34.407Z,19.30
2018-12-05T23:23:02.029Z,19.31
2018-12-05T23:25:29.685Z,19.31
2018-12-05T23:27:57.300Z,19.31
2018-12-05T23:30:25.019Z,19.30
2018-12-05T23:32:52.635Z,19.31
2018-12-05T23:35:20.348Z,19.33
2018-12-05T23:37:47.968Z,19.31
2018-12-05T23:40:15.605Z,19.32
2018-12-05T23:42:43.580Z,19.32
2018-12-05T23:45:11.208Z,19.33
2018-12-05T23:47:38.843Z,19.35
2018-12-05T23:50:06.492Z,19.38
2018-12-05T23:52:34.167Z,19.35
2018-12-05T23:55:01.808Z,19.33
2018-12-05T23:57:29.491Z,19.32
2018-12-05T23:59:57.104Z,19.24
